Latest Weather Observations for Bourke

IDN60801

Issued at 2:03 pm EST Thursday 25 August 2016 (issued every 30 minutes, with the page automatically refreshed every 10 minutes)

About weather observations | Map of weather stations | Latest weather observations for NSW | Other Formats
Station Details ID: 048245 Name: BOURKE AIRPORT AWS Lat: -30.04 Lon: 145.95 Height: 107.3 m
Data from the previous 72 hours. | See also: Recent months at Bourke
Date/Time
EST
Temp
°C
App
Temp
°C
Dew
Point
°C
Rel
Hum
%
Delta-T
°C
Wind Press
QNH
hPa
Press
MSL
hPa
Rain since
9am
mm
Dir  Spd
km/h
Gust
km/h
Spd
kts
Gust
kts
25/02:00pm 17.0 11.3 2.6 38 6.6 SW 22 33 12 18 1016.0 1016.0 0.0
25/01:30pm 16.6 11.4 3.3 41 6.1 WSW 20 33 11 18 1016.2 1016.2 0.0
25/01:00pm 16.0 11.2 2.8 41 6.0 SW 17 26 9 14 1016.4 1016.4 0.0
25/12:30pm 15.8 11.2 3.6 44 5.6 SW 17 30 9 16 1016.8 1016.8 0.0
25/12:00pm 15.4 10.8 3.9 46 5.3 WSW 17 26 9 14 1017.1 1017.1 0.0
25/11:30am 14.9 11.2 4.6 50 4.8 WSW 13 24 7 13 1017.4 1017.4 0.0
25/11:00am 14.7 11.2 5.5 54 4.4 WSW 13 20 7 11 1017.7 1017.7 0.0
25/10:30am 13.3 10.1 5.2 58 3.8 SSW 11 17 6 9 1017.7 1017.7 0.0
25/10:00am 12.2 10.2 6.9 70 2.5 SW 7 11 4 6 1017.8 1017.8 0.0
25/09:30am 10.9 8.3 6.1 72 2.2 WSW 9 13 5 7 1017.8 1017.8 0.0
25/09:00am 9.7 7.5 6.4 80 1.5 W 7 11 4 6 1017.5 1017.5 0.8
25/08:30am 8.2 5.7 6.5 89 0.8 WSW 9 11 5 6 1017.4 1017.4 0.8
25/08:00am 6.7 4.0 5.7 93 0.4 W 9 13 5 7 1017.1 1017.1 0.8
25/07:30am 5.1 2.6 4.7 97 0.2 W 7 9 4 5 1016.8 1016.8 0.8
25/07:00am 3.8 0.7 3.5 98 0.1 W 9 9 5 5 1016.3 1016.3 0.8
25/06:30am 3.7 0.5 3.3 97 0.2 W 9 11 5 6 1016.0 1016.0 0.8
25/06:00am 2.5 -0.5 1.8 95 0.3 WNW 7 9 4 5 1015.5 1015.5 0.8
25/05:30am 3.4 0.7 2.4 93 0.4 WSW 6 7 3 4 1014.9 1014.9 0.8
25/05:00am 5.0 2.1 4.4 96 0.3 WSW 9 11 5 6 1014.6 1014.6 0.8
25/04:30am 4.4 1.3 3.4 93 0.4 WSW 9 13 5 7 1014.6 1014.6 0.8
25/04:00am 5.8 2.6 5.1 95 0.3 WSW 11 15 6 8 1014.3 1014.3 0.8
25/03:30am 5.7 2.5 5.1 96 0.3 WSW 11 13 6 7 1014.2 1014.2 0.6
25/03:00am 5.9 2.7 5.2 95 0.3 W 11 13 6 7 1014.0 1014.0 0.6
25/02:30am 5.9 2.7 5.2 95 0.3 W 11 13 6 7 1013.8 1013.8 0.6
25/02:00am 6.4 3.7 5.7 95 0.3 W 9 13 5 7 1013.8 1013.8 0.6
25/01:30am 6.5 3.8 5.6 94 0.4 W 9 11 5 6 1013.8 1013.8 0.6
25/01:00am 6.8 4.1 5.7 93 0.5 WSW 9 13 5 7 1013.8 1013.8 0.6
25/12:30am 7.4 4.1 6.2 92 0.5 WSW 13 19 7 10 1013.8 1013.8 0.6
25/12:00am 7.9 4.7 6.7 92 0.6 WSW 13 17 7 9 1014.1 1014.1 0.6
 
Date/Time
EST
Temp
°C
App
Temp
°C
Dew
Point
°C
Rel
Hum
%
Delta-T
°C
Wind Press
QNH
hPa
Press
MSL
hPa
Rain since
9am
mm
Dir  Spd
km/h
Gust
km/h
Spd
kts
Gust
kts
24/11:30pm 7.7 4.4 6.5 92 0.6 WSW 13 17 7 9 1014.1 1014.1 0.6
24/11:00pm 7.3 4.4 6.4 94 0.4 WSW 11 15 6 8 1014.0 1014.0 0.6
24/10:30pm 6.4 3.7 5.4 93 0.4 WSW 9 11 5 6 1013.9 1013.9 0.6
24/10:00pm 6.3 3.8 4.5 88 0.8 WSW 7 11 4 6 1013.8 1013.8 0.6
24/09:30pm 8.1 5.6 6.4 89 0.8 WSW 9 11 5 6 1013.3 1013.3 0.6
24/09:00pm 8.5 6.0 6.5 87 0.9 WSW 9 13 5 7 1013.2 1013.2 0.6
24/08:30pm 8.8 6.2 6.3 84 1.2 WSW 9 13 5 7 1013.1 1013.1 0.6
24/08:00pm 10.0 6.9 7.1 82 1.4 W 13 17 7 9 1013.0 1013.0 0.6
24/07:30pm 10.2 8.2 7.1 81 1.5 WNW 7 11 4 6 1012.7 1012.7 0.6
24/07:00pm 10.0 8.1 7.4 84 1.2 W 7 9 4 5 1012.3 1012.3 0.6
24/06:30pm 9.8 7.3 6.7 81 1.5 W 9 11 5 6 1011.9 1011.9 0.6
24/06:00pm 10.5 8.0 6.6 77 1.8 W 9 11 5 6 1011.5 1011.5 0.6
24/05:30pm 11.5 8.7 7.0 74 2.2 SW 11 17 6 9 1011.2 1011.2 0.6
24/05:00pm 11.9 7.9 6.8 71 2.4 SW 17 24 9 13 1011.1 1011.1 0.6
24/04:30pm 11.4 7.4 6.7 73 2.2 SW 17 20 9 11 1010.6 1010.5 0.6
24/04:00pm 11.1 8.0 7.4 78 1.8 WSW 13 19 7 10 1010.6 1010.5 0.6
24/03:30pm 10.8 7.0 7.7 81 1.5 SW 17 26 9 14 1010.3 1010.2 0.6
24/03:00pm 11.0 6.9 7.9 81 1.5 SW 19 28 10 15 1010.3 1010.2 0.6
24/02:30pm 11.0 7.9 8.9 87 1.0 SW 15 28 8 15 1010.3 1010.2 0.6
24/02:00pm 11.3 7.5 9.0 86 1.2 SW 19 28 10 15 1010.4 1010.3 0.6
24/01:30pm 11.9 8.6 8.2 78 1.8 SW 15 26 8 14 1010.5 1010.4 0.0
24/01:00pm 12.3 8.9 7.6 73 2.3 SW 15 20 8 11 1010.6 1010.5 0.0
24/12:30pm 12.3 8.8 7.4 72 2.4 SW 15 19 8 10 1010.9 1010.9 0.0
24/12:00pm 12.2 9.2 7.7 74 2.2 SW 13 17 7 9 1011.1 1011.1 0.0
24/11:30am 11.5 8.8 7.4 76 2.0 SW 11 17 6 9 1011.5 1011.5 0.0
24/11:00am 11.0 7.9 7.3 78 1.8 SW 13 17 7 9 1011.9 1011.9 0.0
24/10:30am 10.8 7.8 7.7 81 1.5 SW 13 15 7 8 1012.0 1012.0 0.0
24/10:00am 10.7 8.1 7.6 81 1.5 SW 11 15 6 8 1011.8 1011.8 0.0
24/09:30am 10.6 7.9 7.5 81 1.5 SW 11 17 6 9 1011.7 1011.7 0.0
24/09:00am 10.5 7.9 7.6 82 1.4 SW 11 17 6 9 1012.0 1012.0 0.2
24/08:30am 10.5 7.9 7.7 83 1.4 SSW 11 15 6 8 1011.9 1011.9 0.2
24/08:00am 10.2 8.0 7.8 85 1.2 SW 9 13 5 7 1011.8 1011.8 0.2
24/07:30am 9.9 8.1 8.0 88 0.9 SW 7 11 4 6 1011.4 1011.4 0.2
24/07:00am 9.5 8.2 7.8 89 0.8 W 4 9 2 5 1011.5 1011.5 0.2
24/06:30am 9.4 8.9 7.8 90 0.8 CALM 0 0 0 0 1011.0 1011.0 0.2
24/06:00am 9.2 8.6 7.5 89 0.8 CALM 0 0 0 0 1011.0 1011.0 0.2
24/05:30am 9.2 6.8 7.0 86 1.0 ESE 9 11 5 6 1010.8 1010.7 0.2
24/05:00am 9.7 7.4 7.5 86 1.1 SSW 9 11 5 6 1010.9 1010.9 0.2
24/04:30am 9.6 7.3 7.5 87 1.0 SE 9 9 5 5 1010.3 1010.2 0.2
24/04:00am 9.7 7.5 7.8 88 0.9 SSW 9 11 5 6 1010.9 1010.9 0.2
24/03:30am 9.7 7.4 7.6 87 1.0 SSE 9 11 5 6 1010.7 1010.6 0.2
24/03:00am 9.7 7.4 7.5 86 1.1 SE 9 11 5 6 1010.8 1010.7 0.2
24/02:30am 9.7 7.4 7.5 86 1.1 SE 9 11 5 6 1011.3 1011.3 0.2
24/02:00am 9.6 7.3 7.4 86 1.1 ESE 9 11 5 6 1011.9 1011.9 0.2
24/01:30am 9.6 7.3 7.4 86 1.0 ESE 9 13 5 7 1012.6 1012.6 0.2
24/01:00am 9.6 7.3 7.4 86 1.1 ESE 9 13 5 7 1012.7 1012.7 0.2
24/12:30am 9.6 7.3 7.4 86 1.0 SSE 9 13 5 7 1013.2 1013.2 0.0
24/12:00am 10.0 6.9 7.1 82 1.4 SE 13 17 7 9 1013.1 1013.1 0.0
 
Date/Time
EST
Temp
°C
App
Temp
°C
Dew
Point
°C
Rel
Hum
%
Delta-T
°C
Wind Press
QNH
hPa
Press
MSL
hPa
Rain since
9am
mm
Dir  Spd
km/h
Gust
km/h
Spd
kts
Gust
kts
23/11:30pm 10.1 7.0 7.2 82 1.4 S 13 19 7 10 1014.0 1014.0 0.0
23/11:00pm 10.3 7.2 7.4 82 1.4 S 13 19 7 10 1014.4 1014.4 0.0
23/10:30pm 10.2 7.5 7.3 82 1.4 SSE 11 17 6 9 1013.8 1013.8 0.0
23/10:00pm 10.6 7.9 7.5 81 1.5 SE 11 19 6 10 1014.0 1014.0 0.0
23/09:30pm 10.7 8.1 7.6 81 1.5 SSE 11 15 6 8 1014.6 1014.6 0.0
23/09:00pm 10.8 8.1 7.5 80 1.6 SSE 11 13 6 7 1014.5 1014.5 0.0
23/08:30pm 11.0 7.6 7.7 80 1.6 SE 15 20 8 11 1014.0 1014.0 0.0
23/08:00pm 11.2 8.2 7.9 80 1.6 SE 13 19 7 10 1013.9 1013.9 0.0
23/07:30pm 11.3 8.7 7.8 79 1.7 ESE 11 17 6 9 1013.9 1013.9 0.0
23/07:00pm 11.7 9.5 8.0 78 1.8 SE 9 13 5 7 1013.9 1013.9 0.0
23/06:30pm 11.8 8.1 7.9 77 1.9 ESE 17 22 9 12 1012.9 1012.9 0.0
23/06:00pm 12.1 8.7 7.8 75 2.1 ESE 15 20 8 11 1013.4 1013.4 0.0
23/05:30pm 12.2 8.5 7.9 75 2.1 ESE 17 26 9 14 1013.0 1013.0 0.0
23/05:00pm 12.4 8.1 7.9 74 2.2 E 20 30 11 16 1012.1 1012.1 0.0
23/04:30pm 12.5 8.2 7.8 73 2.3 E 20 30 11 16 1012.1 1012.1 0.0
23/04:00pm 12.8 9.5 7.9 72 2.4 ESE 15 19 8 10 1013.1 1013.1 0.0
23/03:30pm 12.9 10.7 7.8 71 2.5 SE 9 13 5 7 1013.8 1013.8 0.0
23/03:00pm 12.8 10.9 7.7 71 2.5 SE 7 11 4 6 1014.3 1014.3 0.0
23/02:30pm 12.8 11.9 7.7 71 2.5 SSE 2 7 1 4 1014.4 1014.4 0.0
23/02:00pm 12.8 10.5 7.5 70 2.6 ENE 9 11 5 6 1014.2 1014.2 0.0
23/01:30pm 12.7 10.5 7.8 72 2.4 E 9 11 5 6 1013.6 1013.6 0.0
23/01:00pm 12.6 8.8 7.7 72 2.4 ENE 17 20 9 11 1013.3 1013.3 0.0
23/12:30pm 12.6 9.1 7.1 69 2.7 ENE 15 20 8 11 1014.7 1014.7 0.0
23/12:00pm 12.4 9.4 7.5 72 2.4 ENE 13 20 7 11 1015.4 1015.4 0.0
23/11:30am 12.3 8.9 7.6 73 2.3 ESE 15 22 8 12 1014.6 1014.6 0.0
23/11:00am 12.1 8.7 7.8 75 2.1 ESE 15 19 8 10 1015.1 1015.1 0.0
23/10:30am 12.0 9.1 8.3 78 1.8 E 13 19 7 10 1016.2 1016.2 0.0
23/10:00am 11.6 8.7 8.1 79 1.7 ESE 13 19 7 10 1016.8 1016.8 0.0
23/09:30am 11.3 8.3 7.8 79 1.7 SE 13 20 7 11 1016.2 1016.2 0.0
23/09:00am 11.0 8.2 8.4 84 1.3 SE 13 19 7 10 1015.9 1015.9 1.4
23/08:30am 10.7 7.9 8.5 86 1.1 SE 13 19 7 10 1015.4 1015.4 1.4
23/08:00am 10.3 7.5 8.6 89 0.8 S 13 17 7 9 1015.9 1015.9 1.4
23/07:30am 10.1 8.1 8.7 91 0.7 SSE 9 13 5 7 1015.7 1015.7 1.4
23/07:00am 10.1 7.3 8.7 91 0.7 SSW 13 19 7 10 1015.6 1015.6 1.4
23/06:30am 10.1 7.7 8.7 91 0.7 S 11 15 6 8 1015.3 1015.3 1.4
23/06:00am 10.2 8.6 8.8 91 0.7 SW 7 9 4 5 1015.3 1015.3 1.4
23/05:30am 10.3 8.7 8.6 89 0.8 SSW 7 11 4 6 1014.6 1014.6 1.4
23/05:00am 10.3 8.0 9.1 92 0.6 S 11 15 6 8 1013.7 1013.7 1.4
23/04:30am 10.3 8.0 9.1 92 0.6 S 11 15 6 8 1012.9 1012.9 1.4
23/04:00am 10.3 8.4 9.1 92 0.6 SSW 9 15 5 8 1013.4 1013.4 1.4
23/03:30am 10.4 8.2 9.2 92 0.6 SSW 11 15 6 8 1013.3 1013.3 1.4
23/03:00am 10.4 8.6 9.3 93 0.6 SSW 9 17 5 9 1013.0 1013.0 1.4
23/02:30am 10.4 8.9 9.3 93 0.6 SW 7 9 4 5 1013.8 1013.8 1.4
23/02:00am 10.5 9.0 9.1 91 0.7 SW 7 11 4 6 1014.2 1014.2 1.4
23/01:30am 10.8 9.4 9.4 91 0.7 WSW 7 9 4 5 1014.5 1014.5 1.4
23/01:00am 10.9 8.7 9.3 90 0.8 WSW 11 15 6 8 1014.5 1014.5 1.4
23/12:30am 10.9 9.2 9.7 92 0.6 SW 9 13 5 7 1014.5 1014.5 1.4
23/12:00am 10.9 9.2 9.8 93 0.6 WSW 9 11 5 6 1014.1 1014.1 1.4
 
Date/Time
EST
Temp
°C
App
Temp
°C
Dew
Point
°C
Rel
Hum
%
Delta-T
°C
Wind Press
QNH
hPa
Press
MSL
hPa
Rain since
9am
mm
Dir  Spd
km/h
Gust
km/h
Spd
kts
Gust
kts
22/11:30pm 11.0 9.3 9.8 92 0.6 W 9 13 5 7 1014.4 1014.4 1.4
22/11:00pm 11.1 9.4 9.9 92 0.6 WSW 9 15 5 8 1014.1 1014.1 1.4
22/10:30pm 11.3 10.1 10.2 93 0.6 WSW 7 11 4 6 1013.9 1013.9 1.4
22/10:00pm 11.5 9.6 10.6 94 0.5 SW 11 15 6 8 1013.9 1013.9 1.4
22/09:30pm 11.4 9.8 10.3 93 0.6 SSW 9 11 5 6 1013.6 1013.6 1.4
22/09:00pm 12.0 11.2 10.9 93 0.6 WSW 6 9 3 5 1013.5 1013.5 1.4
22/08:30pm 12.1 11.3 11.2 94 0.5 W 6 7 3 4 1013.5 1013.5 1.4
22/08:00pm 12.2 11.3 11.3 94 0.5 WSW 7 9 4 5 1013.3 1013.3 1.4
22/07:30pm 12.1 11.3 11.2 94 0.5 WSW 6 9 3 5 1012.9 1012.9 1.4
22/07:00pm 12.1 11.3 11.2 94 0.5 SW 6 7 3 4 1012.4 1012.4 1.4
22/06:30pm 12.1 11.2 11.2 94 0.5 SSW 7 9 4 5 1011.8 1011.8 1.4
22/06:00pm 12.2 11.2 11.1 93 0.6 ESE 7 11 4 6 1011.5 1011.5 1.4
22/05:30pm 12.4 11.6 11.1 92 0.7 S 6 7 3 4 1011.6 1011.6 1.4
22/05:00pm 12.7 9.8 11.1 90 0.8 SSW 17 20 9 11 1011.3 1011.3 0.8
22/04:30pm 13.1 11.4 11.2 88 1.0 SSW 11 13 6 7 1010.8 1010.7 0.8
22/04:00pm 13.5 11.9 11.7 89 1.0 S 11 15 6 8 1010.5 1010.4 0.8
22/03:30pm 13.3 12.0 11.4 88 1.0 SW 9 13 5 7 1010.7 1010.6 0.6
22/03:00pm 14.0 12.8 10.2 78 2.0 WSW 7 11 4 6 1010.7 1010.6 0.0
22/02:30pm 14.4 13.1 10.0 75 2.3 NNW 7 13 4 7 1010.6 1010.5 0.0

Other Formats:

Comma delimited format used in spreadsheet applications
http://www.bom.gov.au/fwo/IDN60801/IDN60801.94703.axf

JavaScript Object Notation format (JSON) in row-major order
http://www.bom.gov.au/fwo/IDN60801/IDN60801.94703.json